Main page
METAR-TAF:

METAR-TAF

Airports :

Shimla Airport

Shimla, India

latitude: 31-04-54N, longitude: 77-04-05E, elevation: 1546 m

METAR: missing

Time: 03:40 (22:10 UTC)

Forecast

The report was made 17 hours and 10 minutes ago, at 05:00 UTC
Forecast valid from 22 at 06 UTC to 22 at 15 UTC
Wind 2 kt from variable directions
Visibility: 1000 m
Few clouds at a height of 500 ft
Broken clouds at a height of 2000 ft
Overcast at a height of 6000 ft
mist, rain
Temporary
from 22 at 06 UTC to 22 at 12 UTC
Visibility: 0800 m
Few clouds at a height of 3000 ft, Cumulonimbus.

TAF: VISM 220500Z 2206/2215 VRB02KT 1000 BR RA FEW005 BKN020 OVC060 TEMPO 2206/2212 0800 TSRA/SN FEW030CB

Weather observations and forecasts of more than 4000 airports (METAR and TAF reports).

The available stations are represented by yellow and red dots on the map.

Hover mouse over dot to see the name of the station.

Then click to see weather observations and forecasts.

To change the map : click on the green buttons with a black cross to zoom in, on the green button with a dash to zoom out, or on the green arrows for adjacent maps.


METAR-TAF: